sensor_id;sensor_type;location;lat;lon;timestamp;P1;durP1;ratioP1;P2;durP2;ratioP2
76892;SDS011;65854;51.466;7.260;2023-02-28T00:00:07;8.50;;;2.88;;
76892;SDS011;65854;51.466;7.260;2023-02-28T00:02:35;7.82;;;2.63;;
76892;SDS011;65854;51.466;7.260;2023-02-28T00:05:02;8.90;;;2.92;;
76892;SDS011;65854;51.466;7.260;2023-02-28T00:07:28;8.27;;;2.73;;
76892;SDS011;65854;51.466;7.260;2023-02-28T00:09:55;9.05;;;2.88;;
76892;SDS011;65854;51.466;7.260;2023-02-28T00:12:20;9.60;;;3.22;;
76892;SDS011;65854;51.466;7.260;2023-02-28T00:14:46;8.00;;;2.90;;
76892;SDS011;65854;51.466;7.260;2023-02-28T00:17:12;9.67;;;2.97;;
76892;SDS011;65854;51.466;7.260;2023-02-28T00:19:37;8.68;;;3.10;;
76892;SDS011;65854;51.466;7.260;2023-02-28T00:22:03;10.37;;;2.83;;
76892;SDS011;65854;51.466;7.260;2023-02-28T00:24:28;9.50;;;3.28;;
76892;SDS011;65854;51.466;7.260;2023-02-28T00:26:54;10.15;;;2.90;;
76892;SDS011;65854;51.466;7.260;2023-02-28T00:29:19;10.10;;;3.00;;
76892;SDS011;65854;51.466;7.260;2023-02-28T00:31:45;7.63;;;2.80;;
76892;SDS011;65854;51.466;7.260;2023-02-28T00:34:11;8.60;;;2.97;;
76892;SDS011;65854;51.466;7.260;2023-02-28T00:36:36;10.93;;;3.07;;
76892;SDS011;65854;51.466;7.260;2023-02-28T00:39:02;7.78;;;2.70;;
76892;SDS011;65854;51.466;7.260;2023-02-28T00:41:27;7.90;;;2.60;;
76892;SDS011;65854;51.466;7.260;2023-02-28T00:43:53;7.13;;;2.60;;
76892;SDS011;65854;51.466;7.260;2023-02-28T00:46:18;7.45;;;2.55;;
76892;SDS011;65854;51.466;7.260;2023-02-28T00:48:44;8.73;;;2.73;;
76892;SDS011;65854;51.466;7.260;2023-02-28T00:51:10;6.67;;;2.40;;
76892;SDS011;65854;51.466;7.260;2023-02-28T00:53:35;6.35;;;2.70;;
76892;SDS011;65854;51.466;7.260;2023-02-28T00:56:01;8.57;;;3.10;;
76892;SDS011;65854;51.466;7.260;2023-02-28T00:58:27;8.45;;;2.97;;
76892;SDS011;65854;51.466;7.260;2023-02-28T01:00:53;8.95;;;3.40;;
76892;SDS011;65854;51.466;7.260;2023-02-28T01:03:20;7.33;;;2.80;;
76892;SDS011;65854;51.466;7.260;2023-02-28T01:05:47;8.85;;;2.90;;
76892;SDS011;65854;51.466;7.260;2023-02-28T01:08:13;7.10;;;2.70;;
76892;SDS011;65854;51.466;7.260;2023-02-28T01:10:39;7.57;;;2.30;;
76892;SDS011;65854;51.466;7.260;2023-02-28T01:13:05;8.30;;;2.55;;
76892;SDS011;65854;51.466;7.260;2023-02-28T01:15:31;7.53;;;2.85;;
76892;SDS011;65854;51.466;7.260;2023-02-28T01:17:58;7.60;;;2.70;;
76892;SDS011;65854;51.466;7.260;2023-02-28T01:20:24;8.20;;;2.67;;
76892;SDS011;65854;51.466;7.260;2023-02-28T01:22:49;7.03;;;2.53;;
76892;SDS011;65854;51.466;7.260;2023-02-28T01:25:15;9.07;;;2.60;;
76892;SDS011;65854;51.466;7.260;2023-02-28T01:27:41;9.13;;;3.10;;
76892;SDS011;65854;51.466;7.260;2023-02-28T01:30:07;6.45;;;2.20;;
76892;SDS011;65854;51.466;7.260;2023-02-28T01:32:33;7.05;;;2.40;;
76892;SDS011;65854;51.466;7.260;2023-02-28T01:34:59;6.78;;;2.47;;
76892;SDS011;65854;51.466;7.260;2023-02-28T01:37:25;7.17;;;2.40;;
76892;SDS011;65854;51.466;7.260;2023-02-28T01:39:51;9.35;;;2.88;;
76892;SDS011;65854;51.466;7.260;2023-02-28T01:42:17;7.22;;;2.30;;
76892;SDS011;65854;51.466;7.260;2023-02-28T01:45:03;6.38;;;2.50;;
76892;SDS011;65854;51.466;7.260;2023-02-28T01:47:39;7.10;;;2.55;;
76892;SDS011;65854;51.466;7.260;2023-02-28T01:50:09;7.27;;;2.43;;
76892;SDS011;65854;51.466;7.260;2023-02-28T01:52:39;6.65;;;2.33;;
76892;SDS011;65854;51.466;7.260;2023-02-28T01:55:05;8.23;;;2.70;;
76892;SDS011;65854;51.466;7.260;2023-02-28T01:57:33;8.80;;;2.60;;
76892;SDS011;65854;51.466;7.260;2023-02-28T02:00:07;7.65;;;2.50;;
76892;SDS011;65854;51.466;7.260;2023-02-28T02:02:38;7.67;;;2.33;;
76892;SDS011;65854;51.466;7.260;2023-02-28T02:05:06;7.60;;;2.25;;
76892;SDS011;65854;51.466;7.260;2023-02-28T02:07:37;7.03;;;2.30;;
76892;SDS011;65854;51.466;7.260;2023-02-28T02:10:15;6.88;;;2.25;;
76892;SDS011;65854;51.466;7.260;2023-02-28T02:12:58;8.13;;;2.25;;
76892;SDS011;65854;51.466;7.260;2023-02-28T02:34:43;10.68;;;2.53;;
76892;SDS011;65854;51.466;7.260;2023-02-28T02:37:51;7.28;;;2.15;;
76892;SDS011;65854;51.466;7.260;2023-02-28T02:40:23;6.90;;;2.33;;
76892;SDS011;65854;51.466;7.260;2023-02-28T02:45:42;6.22;;;2.00;;
76892;SDS011;65854;51.466;7.260;2023-02-28T02:48:19;6.82;;;2.10;;
76892;SDS011;65854;51.466;7.260;2023-02-28T02:50:51;7.40;;;2.60;;
76892;SDS011;65854;51.466;7.260;2023-02-28T02:53:21;6.28;;;2.17;;
76892;SDS011;65854;51.466;7.260;2023-02-28T02:55:51;9.53;;;2.30;;
76892;SDS011;65854;51.466;7.260;2023-02-28T02:58:20;7.05;;;2.15;;
76892;SDS011;65854;51.466;7.260;2023-02-28T03:00:51;7.72;;;2.25;;
76892;SDS011;65854;51.466;7.260;2023-02-28T03:03:19;7.88;;;2.40;;
76892;SDS011;65854;51.466;7.260;2023-02-28T03:05:53;6.82;;;2.40;;
76892;SDS011;65854;51.466;7.260;2023-02-28T03:08:20;7.30;;;2.50;;
76892;SDS011;65854;51.466;7.260;2023-02-28T03:10:48;7.40;;;2.20;;
76892;SDS011;65854;51.466;7.260;2023-02-28T03:18:44;7.28;;;2.17;;
76892;SDS011;65854;51.466;7.260;2023-02-28T03:23:50;8.15;;;2.10;;
76892;SDS011;65854;51.466;7.260;2023-02-28T03:26:22;7.10;;;2.42;;
76892;SDS011;65854;51.466;7.260;2023-02-28T03:29:03;6.37;;;2.30;;
76892;SDS011;65854;51.466;7.260;2023-02-28T03:31:39;6.80;;;2.60;;
76892;SDS011;65854;51.466;7.260;2023-02-28T03:34:17;7.57;;;2.42;;
76892;SDS011;65854;51.466;7.260;2023-02-28T03:36:57;6.88;;;2.78;;
76892;SDS011;65854;51.466;7.260;2023-02-28T03:39:38;9.40;;;2.50;;
76892;SDS011;65854;51.466;7.260;2023-02-28T03:42:14;6.70;;;2.33;;
76892;SDS011;65854;51.466;7.260;2023-02-28T03:44:45;10.40;;;2.30;;
76892;SDS011;65854;51.466;7.260;2023-02-28T03:47:31;7.45;;;2.33;;
76892;SDS011;65854;51.466;7.260;2023-02-28T03:50:11;6.15;;;2.17;;
76892;SDS011;65854;51.466;7.260;2023-02-28T03:52:42;8.07;;;2.50;;
76892;SDS011;65854;51.466;7.260;2023-02-28T03:55:14;7.30;;;2.30;;
76892;SDS011;65854;51.466;7.260;2023-02-28T04:00:45;6.30;;;2.20;;
76892;SDS011;65854;51.466;7.260;2023-02-28T04:03:14;7.55;;;2.30;;
76892;SDS011;65854;51.466;7.260;2023-02-28T04:05:53;6.47;;;2.43;;
76892;SDS011;65854;51.466;7.260;2023-02-28T04:08:20;9.75;;;2.40;;
76892;SDS011;65854;51.466;7.260;2023-02-28T04:10:48;6.50;;;2.25;;
76892;SDS011;65854;51.466;7.260;2023-02-28T04:13:31;7.80;;;2.33;;
76892;SDS011;65854;51.466;7.260;2023-02-28T04:15:57;7.17;;;2.50;;
76892;SDS011;65854;51.466;7.260;2023-02-28T04:18:22;7.30;;;2.00;;
76892;SDS011;65854;51.466;7.260;2023-02-28T04:20:48;6.30;;;2.30;;
76892;SDS011;65854;51.466;7.260;2023-02-28T04:23:13;8.40;;;2.40;;
76892;SDS011;65854;51.466;7.260;2023-02-28T04:25:39;6.93;;;2.00;;
76892;SDS011;65854;51.466;7.260;2023-02-28T04:28:05;6.88;;;2.28;;
76892;SDS011;65854;51.466;7.260;2023-02-28T04:30:31;6.65;;;2.15;;
76892;SDS011;65854;51.466;7.260;2023-02-28T04:32:57;6.18;;;2.42;;
76892;SDS011;65854;51.466;7.260;2023-02-28T04:35:24;6.22;;;2.20;;
76892;SDS011;65854;51.466;7.260;2023-02-28T04:37:50;6.53;;;2.60;;
76892;SDS011;65854;51.466;7.260;2023-02-28T04:40:15;6.13;;;2.27;;
76892;SDS011;65854;51.466;7.260;2023-02-28T04:42:41;7.07;;;2.17;;
76892;SDS011;65854;51.466;7.260;2023-02-28T04:45:07;7.43;;;2.40;;
76892;SDS011;65854;51.466;7.260;2023-02-28T04:47:35;8.38;;;2.50;;
76892;SDS011;65854;51.466;7.260;2023-02-28T04:50:01;8.32;;;2.60;;
76892;SDS011;65854;51.466;7.260;2023-02-28T04:52:27;9.37;;;2.33;;
76892;SDS011;65854;51.466;7.260;2023-02-28T04:54:52;7.13;;;2.60;;
76892;SDS011;65854;51.466;7.260;2023-02-28T04:57:18;9.33;;;2.40;;
76892;SDS011;65854;51.466;7.260;2023-02-28T04:59:43;6.20;;;2.20;;
76892;SDS011;65854;51.466;7.260;2023-02-28T05:02:09;7.07;;;2.60;;
76892;SDS011;65854;51.466;7.260;2023-02-28T05:04:35;6.83;;;2.40;;
76892;SDS011;65854;51.466;7.260;2023-02-28T05:07:01;7.55;;;2.65;;
76892;SDS011;65854;51.466;7.260;2023-02-28T05:09:28;7.28;;;2.53;;
76892;SDS011;65854;51.466;7.260;2023-02-28T05:11:54;7.00;;;2.50;;
76892;SDS011;65854;51.466;7.260;2023-02-28T05:14:20;7.63;;;2.65;;
76892;SDS011;65854;51.466;7.260;2023-02-28T05:16:46;8.10;;;2.47;;
76892;SDS011;65854;51.466;7.260;2023-02-28T05:19:12;9.60;;;2.43;;
76892;SDS011;65854;51.466;7.260;2023-02-28T05:21:38;8.13;;;2.78;;
76892;SDS011;65854;51.466;7.260;2023-02-28T05:24:06;10.68;;;2.75;;
76892;SDS011;65854;51.466;7.260;2023-02-28T05:26:36;11.47;;;2.70;;
76892;SDS011;65854;51.466;7.260;2023-02-28T05:29:03;6.80;;;2.42;;
76892;SDS011;65854;51.466;7.260;2023-02-28T05:31:28;8.30;;;3.05;;
76892;SDS011;65854;51.466;7.260;2023-02-28T05:33:54;8.37;;;2.77;;
76892;SDS011;65854;51.466;7.260;2023-02-28T05:36:20;10.07;;;2.60;;
76892;SDS011;65854;51.466;7.260;2023-02-28T05:38:46;7.23;;;2.80;;
76892;SDS011;65854;51.466;7.260;2023-02-28T05:41:13;9.75;;;2.95;;
76892;SDS011;65854;51.466;7.260;2023-02-28T05:43:39;9.45;;;2.90;;
76892;SDS011;65854;51.466;7.260;2023-02-28T05:46:05;9.20;;;2.70;;
76892;SDS011;65854;51.466;7.260;2023-02-28T05:48:32;8.52;;;2.60;;
76892;SDS011;65854;51.466;7.260;2023-02-28T05:50:59;9.55;;;2.88;;
76892;SDS011;65854;51.466;7.260;2023-02-28T05:53:25;8.63;;;2.92;;
76892;SDS011;65854;51.466;7.260;2023-02-28T05:55:51;7.80;;;2.87;;
76892;SDS011;65854;51.466;7.260;2023-02-28T05:58:17;7.95;;;2.75;;
76892;SDS011;65854;51.466;7.260;2023-02-28T06:00:42;7.87;;;2.87;;
76892;SDS011;65854;51.466;7.260;2023-02-28T06:03:08;9.32;;;2.72;;
76892;SDS011;65854;51.466;7.260;2023-02-28T06:05:33;7.53;;;2.40;;
76892;SDS011;65854;51.466;7.260;2023-02-28T06:07:59;10.30;;;2.60;;
76892;SDS011;65854;51.466;7.260;2023-02-28T06:10:26;6.90;;;2.42;;
76892;SDS011;65854;51.466;7.260;2023-02-28T06:12:52;9.10;;;2.50;;
76892;SDS011;65854;51.466;7.260;2023-02-28T06:15:28;7.90;;;2.77;;
76892;SDS011;65854;51.466;7.260;2023-02-28T06:18:16;8.13;;;2.67;;
76892;SDS011;65854;51.466;7.260;2023-02-28T06:21:02;7.15;;;2.58;;
76892;SDS011;65854;51.466;7.260;2023-02-28T06:23:59;10.60;;;3.35;;
76892;SDS011;65854;51.466;7.260;2023-02-28T06:26:26;10.55;;;2.95;;
76892;SDS011;65854;51.466;7.260;2023-02-28T06:28:52;8.10;;;2.90;;
76892;SDS011;65854;51.466;7.260;2023-02-28T06:31:18;8.55;;;2.88;;
76892;SDS011;65854;51.466;7.260;2023-02-28T06:34:30;14.65;;;3.33;;
76892;SDS011;65854;51.466;7.260;2023-02-28T06:37:26;11.43;;;2.80;;
76892;SDS011;65854;51.466;7.260;2023-02-28T06:39:54;11.23;;;3.92;;
76892;SDS011;65854;51.466;7.260;2023-02-28T06:42:23;10.43;;;2.72;;
76892;SDS011;65854;51.466;7.260;2023-02-28T06:44:54;10.88;;;3.03;;
76892;SDS011;65854;51.466;7.260;2023-02-28T06:47:20;13.13;;;3.20;;
76892;SDS011;65854;51.466;7.260;2023-02-28T06:49:46;11.47;;;3.30;;
76892;SDS011;65854;51.466;7.260;2023-02-28T06:52:11;14.00;;;3.35;;
76892;SDS011;65854;51.466;7.260;2023-02-28T06:54:37;11.50;;;3.90;;
76892;SDS011;65854;51.466;7.260;2023-02-28T06:57:03;14.05;;;3.88;;
76892;SDS011;65854;51.466;7.260;2023-02-28T06:59:29;15.63;;;4.00;;
76892;SDS011;65854;51.466;7.260;2023-02-28T07:01:55;17.10;;;3.20;;
76892;SDS011;65854;51.466;7.260;2023-02-28T07:04:21;13.90;;;3.60;;
76892;SDS011;65854;51.466;7.260;2023-02-28T07:06:48;10.00;;;3.13;;
76892;SDS011;65854;51.466;7.260;2023-02-28T07:09:21;13.15;;;3.47;;
76892;SDS011;65854;51.466;7.260;2023-02-28T07:11:47;16.27;;;3.88;;
76892;SDS011;65854;51.466;7.260;2023-02-28T07:14:13;18.83;;;3.80;;
76892;SDS011;65854;51.466;7.260;2023-02-28T07:16:38;16.38;;;3.42;;
76892;SDS011;65854;51.466;7.260;2023-02-28T07:19:08;12.50;;;3.60;;
76892;SDS011;65854;51.466;7.260;2023-02-28T07:21:38;13.90;;;3.45;;
76892;SDS011;65854;51.466;7.260;2023-02-28T07:24:03;15.48;;;4.15;;
76892;SDS011;65854;51.466;7.260;2023-02-28T07:26:29;13.70;;;4.00;;
76892;SDS011;65854;51.466;7.260;2023-02-28T07:28:56;13.55;;;4.15;;
76892;SDS011;65854;51.466;7.260;2023-02-28T07:31:22;13.35;;;3.95;;
76892;SDS011;65854;51.466;7.260;2023-02-28T07:33:48;10.43;;;4.00;;
76892;SDS011;65854;51.466;7.260;2023-02-28T07:36:14;13.53;;;4.13;;
76892;SDS011;65854;51.466;7.260;2023-02-28T07:38:42;11.43;;;3.50;;
76892;SDS011;65854;51.466;7.260;2023-02-28T07:41:15;12.68;;;4.03;;
76892;SDS011;65854;51.466;7.260;2023-02-28T07:43:43;14.27;;;4.30;;
76892;SDS011;65854;51.466;7.260;2023-02-28T07:46:11;9.17;;;3.70;;
76892;SDS011;65854;51.466;7.260;2023-02-28T07:48:42;12.18;;;3.50;;
76892;SDS011;65854;51.466;7.260;2023-02-28T07:51:08;11.90;;;3.55;;
76892;SDS011;65854;51.466;7.260;2023-02-28T07:53:34;11.45;;;3.60;;
76892;SDS011;65854;51.466;7.260;2023-02-28T07:56:00;9.03;;;3.60;;
76892;SDS011;65854;51.466;7.260;2023-02-28T07:58:26;13.43;;;3.95;;
76892;SDS011;65854;51.466;7.260;2023-02-28T08:00:53;7.85;;;3.53;;
76892;SDS011;65854;51.466;7.260;2023-02-28T08:03:19;8.67;;;3.47;;
76892;SDS011;65854;51.466;7.260;2023-02-28T08:05:46;13.63;;;3.50;;
76892;SDS011;65854;51.466;7.260;2023-02-28T08:08:12;10.20;;;3.28;;
76892;SDS011;65854;51.466;7.260;2023-02-28T08:10:39;11.65;;;3.30;;
76892;SDS011;65854;51.466;7.260;2023-02-28T08:13:06;9.13;;;3.10;;
76892;SDS011;65854;51.466;7.260;2023-02-28T08:15:32;8.73;;;3.10;;
76892;SDS011;65854;51.466;7.260;2023-02-28T08:17:57;9.17;;;3.33;;
76892;SDS011;65854;51.466;7.260;2023-02-28T08:20:24;10.25;;;3.20;;
76892;SDS011;65854;51.466;7.260;2023-02-28T08:22:50;6.90;;;2.85;;
76892;SDS011;65854;51.466;7.260;2023-02-28T08:25:16;9.43;;;3.20;;
76892;SDS011;65854;51.466;7.260;2023-02-28T08:27:41;11.65;;;3.45;;
76892;SDS011;65854;51.466;7.260;2023-02-28T08:30:08;8.63;;;2.95;;
76892;SDS011;65854;51.466;7.260;2023-02-28T08:32:35;8.70;;;3.50;;
76892;SDS011;65854;51.466;7.260;2023-02-28T08:35:01;10.57;;;3.20;;
76892;SDS011;65854;51.466;7.260;2023-02-28T08:37:27;8.15;;;3.40;;
76892;SDS011;65854;51.466;7.260;2023-02-28T08:39:53;10.57;;;3.30;;
76892;SDS011;65854;51.466;7.260;2023-02-28T08:42:19;9.00;;;3.10;;
76892;SDS011;65854;51.466;7.260;2023-02-28T08:44:45;11.25;;;3.47;;
76892;SDS011;65854;51.466;7.260;2023-02-28T08:47:10;10.15;;;3.40;;
76892;SDS011;65854;51.466;7.260;2023-02-28T08:49:36;9.10;;;3.17;;
76892;SDS011;65854;51.466;7.260;2023-02-28T08:52:02;9.55;;;2.92;;
76892;SDS011;65854;51.466;7.260;2023-02-28T08:54:28;8.48;;;3.15;;
76892;SDS011;65854;51.466;7.260;2023-02-28T08:56:56;8.23;;;3.03;;
76892;SDS011;65854;51.466;7.260;2023-02-28T08:59:22;14.85;;;3.75;;
76892;SDS011;65854;51.466;7.260;2023-02-28T09:01:47;11.25;;;3.90;;
76892;SDS011;65854;51.466;7.260;2023-02-28T09:04:13;11.88;;;3.70;;
76892;SDS011;65854;51.466;7.260;2023-02-28T09:06:39;12.65;;;3.75;;
76892;SDS011;65854;51.466;7.260;2023-02-28T09:09:05;8.03;;;3.37;;
76892;SDS011;65854;51.466;7.260;2023-02-28T09:11:32;10.90;;;3.55;;
76892;SDS011;65854;51.466;7.260;2023-02-28T09:13:58;7.82;;;3.15;;
76892;SDS011;65854;51.466;7.260;2023-02-28T09:16:26;9.43;;;3.40;;
76892;SDS011;65854;51.466;7.260;2023-02-28T09:18:53;10.95;;;3.50;;
76892;SDS011;65854;51.466;7.260;2023-02-28T09:21:18;8.43;;;3.70;;
76892;SDS011;65854;51.466;7.260;2023-02-28T09:23:45;7.40;;;3.03;;
76892;SDS011;65854;51.466;7.260;2023-02-28T09:26:20;10.75;;;3.80;;
76892;SDS011;65854;51.466;7.260;2023-02-28T09:28:53;7.95;;;2.60;;
76892;SDS011;65854;51.466;7.260;2023-02-28T09:31:23;7.83;;;2.20;;
76892;SDS011;65854;51.466;7.260;2023-02-28T09:33:52;7.30;;;2.60;;
76892;SDS011;65854;51.466;7.260;2023-02-28T09:36:21;8.35;;;2.20;;
76892;SDS011;65854;51.466;7.260;2023-02-28T09:38:48;9.43;;;2.10;;
76892;SDS011;65854;51.466;7.260;2023-02-28T09:41:17;5.95;;;2.05;;
76892;SDS011;65854;51.466;7.260;2023-02-28T09:43:44;5.87;;;2.10;;
76892;SDS011;65854;51.466;7.260;2023-02-28T09:49:00;6.85;;;1.73;;
76892;SDS011;65854;51.466;7.260;2023-02-28T09:51:45;6.88;;;1.80;;
76892;SDS011;65854;51.466;7.260;2023-02-28T09:54:17;5.53;;;1.70;;
76892;SDS011;65854;51.466;7.260;2023-02-28T09:57:04;5.63;;;1.70;;
76892;SDS011;65854;51.466;7.260;2023-02-28T10:03:06;7.43;;;1.90;;
76892;SDS011;65854;51.466;7.260;2023-02-28T10:05:17;6.38;;;2.00;;
76892;SDS011;65854;51.466;7.260;2023-02-28T10:07:50;6.57;;;1.92;;
76892;SDS011;65854;51.466;7.260;2023-02-28T10:12:58;6.25;;;1.40;;
76892;SDS011;65854;51.466;7.260;2023-02-28T10:15:29;4.50;;;1.30;;
76892;SDS011;65854;51.466;7.260;2023-02-28T10:17:57;6.88;;;1.50;;
76892;SDS011;65854;51.466;7.260;2023-02-28T10:20:32;6.63;;;1.80;;
76892;SDS011;65854;51.466;7.260;2023-02-28T10:25:55;6.05;;;1.75;;
76892;SDS011;65854;51.466;7.260;2023-02-28T10:28:28;5.57;;;1.42;;
76892;SDS011;65854;51.466;7.260;2023-02-28T10:30:55;5.03;;;1.65;;
76892;SDS011;65854;51.466;7.260;2023-02-28T10:33:33;6.55;;;1.77;;
76892;SDS011;65854;51.466;7.260;2023-02-28T10:36:00;5.73;;;1.47;;
76892;SDS011;65854;51.466;7.260;2023-02-28T10:38:33;5.50;;;1.70;;
76892;SDS011;65854;51.466;7.260;2023-02-28T10:41:03;7.38;;;1.70;;
76892;SDS011;65854;51.466;7.260;2023-02-28T10:43:31;8.35;;;1.60;;
76892;SDS011;65854;51.466;7.260;2023-02-28T10:48:36;6.35;;;1.50;;
76892;SDS011;65854;51.466;7.260;2023-02-28T10:51:02;7.15;;;1.63;;
76892;SDS011;65854;51.466;7.260;2023-02-28T10:53:33;5.80;;;1.50;;
76892;SDS011;65854;51.466;7.260;2023-02-28T10:58:54;5.07;;;1.70;;
76892;SDS011;65854;51.466;7.260;2023-02-28T11:09:50;7.30;;;1.55;;
76892;SDS011;65854;51.466;7.260;2023-02-28T11:12:26;5.13;;;1.53;;
76892;SDS011;65854;51.466;7.260;2023-02-28T11:15:00;8.77;;;1.67;;
76892;SDS011;65854;51.466;7.260;2023-02-28T11:17:30;6.57;;;1.48;;
76892;SDS011;65854;51.466;7.260;2023-02-28T11:19:57;5.78;;;1.63;;
76892;SDS011;65854;51.466;7.260;2023-02-28T11:22:32;5.50;;;1.52;;
76892;SDS011;65854;51.466;7.260;2023-02-28T11:25:07;10.93;;;1.63;;
76892;SDS011;65854;51.466;7.260;2023-02-28T11:27:42;5.22;;;1.65;;
76892;SDS011;65854;51.466;7.260;2023-02-28T11:32:59;6.05;;;1.83;;
76892;SDS011;65854;51.466;7.260;2023-02-28T11:38:05;6.70;;;1.57;;
76892;SDS011;65854;51.466;7.260;2023-02-28T11:40:46;5.38;;;1.70;;
76892;SDS011;65854;51.466;7.260;2023-02-28T11:48:58;11.40;;;1.80;;
76892;SDS011;65854;51.466;7.260;2023-02-28T12:11:31;7.13;;;1.90;;
76892;SDS011;65854;51.466;7.260;2023-02-28T12:25:58;6.85;;;1.55;;
76892;SDS011;65854;51.466;7.260;2023-02-28T12:28:38;8.43;;;1.85;;
76892;SDS011;65854;51.466;7.260;2023-02-28T12:31:13;16.00;;;2.22;;
76892;SDS011;65854;51.466;7.260;2023-02-28T12:33:49;4.57;;;1.70;;
76892;SDS011;65854;51.466;7.260;2023-02-28T12:36:19;6.38;;;2.10;;
76892;SDS011;65854;51.466;7.260;2023-02-28T12:39:00;5.20;;;2.10;;
76892;SDS011;65854;51.466;7.260;2023-02-28T12:44:40;6.65;;;2.03;;
76892;SDS011;65854;51.466;7.260;2023-02-28T12:47:11;8.20;;;3.10;;
76892;SDS011;65854;51.466;7.260;2023-02-28T12:49:45;8.95;;;2.25;;
76892;SDS011;65854;51.466;7.260;2023-02-28T12:52:35;9.32;;;2.35;;
76892;SDS011;65854;51.466;7.260;2023-02-28T12:55:11;7.03;;;2.45;;
76892;SDS011;65854;51.466;7.260;2023-02-28T13:00:29;6.33;;;2.33;;
76892;SDS011;65854;51.466;7.260;2023-02-28T13:11:01;5.72;;;2.08;;
76892;SDS011;65854;51.466;7.260;2023-02-28T13:13:28;6.43;;;2.20;;
76892;SDS011;65854;51.466;7.260;2023-02-28T13:18:40;6.57;;;2.40;;
76892;SDS011;65854;51.466;7.260;2023-02-28T13:21:22;9.13;;;3.30;;
76892;SDS011;65854;51.466;7.260;2023-02-28T13:34:33;5.40;;;2.30;;
76892;SDS011;65854;51.466;7.260;2023-02-28T13:39:57;6.17;;;2.53;;
76892;SDS011;65854;51.466;7.260;2023-02-28T13:42:35;9.25;;;2.50;;
76892;SDS011;65854;51.466;7.260;2023-02-28T13:47:31;11.30;;;2.60;;
76892;SDS011;65854;51.466;7.260;2023-02-28T13:55:56;7.63;;;2.50;;
76892;SDS011;65854;51.466;7.260;2023-02-28T14:01:08;5.28;;;2.47;;
76892;SDS011;65854;51.466;7.260;2023-02-28T14:03:44;6.18;;;2.35;;
76892;SDS011;65854;51.466;7.260;2023-02-28T14:06:35;8.35;;;3.35;;
76892;SDS011;65854;51.466;7.260;2023-02-28T14:09:16;7.97;;;2.67;;
76892;SDS011;65854;51.466;7.260;2023-02-28T14:18:40;7.53;;;3.17;;
76892;SDS011;65854;51.466;7.260;2023-02-28T14:23:54;8.60;;;2.83;;
76892;SDS011;65854;51.466;7.260;2023-02-28T14:37:59;6.30;;;3.10;;
76892;SDS011;65854;51.466;7.260;2023-02-28T14:40:39;7.07;;;3.00;;
76892;SDS011;65854;51.466;7.260;2023-02-28T14:43:06;8.13;;;3.00;;
76892;SDS011;65854;51.466;7.260;2023-02-28T14:45:48;6.20;;;2.97;;
76892;SDS011;65854;51.466;7.260;2023-02-28T14:48:16;8.77;;;3.10;;
76892;SDS011;65854;51.466;7.260;2023-02-28T14:50:47;6.22;;;2.70;;
76892;SDS011;65854;51.466;7.260;2023-02-28T14:53:18;6.35;;;2.65;;
76892;SDS011;65854;51.466;7.260;2023-02-28T14:55:46;7.10;;;3.20;;
76892;SDS011;65854;51.466;7.260;2023-02-28T14:58:23;7.60;;;3.17;;
76892;SDS011;65854;51.466;7.260;2023-02-28T15:00:51;7.68;;;3.10;;
76892;SDS011;65854;51.466;7.260;2023-02-28T15:03:34;7.75;;;2.70;;
76892;SDS011;65854;51.466;7.260;2023-02-28T15:06:20;6.40;;;2.80;;
76892;SDS011;65854;51.466;7.260;2023-02-28T15:08:46;9.10;;;3.03;;
76892;SDS011;65854;51.466;7.260;2023-02-28T15:11:15;6.57;;;2.78;;
76892;SDS011;65854;51.466;7.260;2023-02-28T15:13:50;7.25;;;2.97;;
76892;SDS011;65854;51.466;7.260;2023-02-28T15:16:22;7.38;;;3.25;;
76892;SDS011;65854;51.466;7.260;2023-02-28T15:19:00;7.13;;;2.80;;
76892;SDS011;65854;51.466;7.260;2023-02-28T15:21:30;5.97;;;2.25;;
76892;SDS011;65854;51.466;7.260;2023-02-28T15:26:56;9.30;;;3.50;;
76892;SDS011;65854;51.466;7.260;2023-02-28T15:29:25;10.85;;;4.32;;
76892;SDS011;65854;51.466;7.260;2023-02-28T15:32:00;11.65;;;4.00;;
76892;SDS011;65854;51.466;7.260;2023-02-28T15:39:51;6.15;;;2.63;;
76892;SDS011;65854;51.466;7.260;2023-02-28T15:42:19;6.35;;;2.53;;
76892;SDS011;65854;51.466;7.260;2023-02-28T15:44:47;8.15;;;3.00;;
76892;SDS011;65854;51.466;7.260;2023-02-28T15:47:20;6.05;;;2.65;;
76892;SDS011;65854;51.466;7.260;2023-02-28T15:49:52;5.80;;;2.63;;
76892;SDS011;65854;51.466;7.260;2023-02-28T15:55:12;9.65;;;3.75;;
76892;SDS011;65854;51.466;7.260;2023-02-28T15:57:46;8.25;;;2.70;;
76892;SDS011;65854;51.466;7.260;2023-02-28T16:00:16;5.85;;;2.63;;
76892;SDS011;65854;51.466;7.260;2023-02-28T16:02:44;6.78;;;2.80;;
76892;SDS011;65854;51.466;7.260;2023-02-28T16:07:39;5.93;;;2.88;;
76892;SDS011;65854;51.466;7.260;2023-02-28T16:10:08;7.03;;;2.70;;
76892;SDS011;65854;51.466;7.260;2023-02-28T16:12:37;6.90;;;2.75;;
76892;SDS011;65854;51.466;7.260;2023-02-28T16:15:46;6.43;;;2.75;;
76892;SDS011;65854;51.466;7.260;2023-02-28T16:17:55;7.57;;;3.10;;
76892;SDS011;65854;51.466;7.260;2023-02-28T16:20:22;8.55;;;3.25;;
76892;SDS011;65854;51.466;7.260;2023-02-28T16:22:50;8.40;;;3.00;;
76892;SDS011;65854;51.466;7.260;2023-02-28T16:25:18;6.07;;;2.70;;
76892;SDS011;65854;51.466;7.260;2023-02-28T16:27:49;7.20;;;2.80;;
76892;SDS011;65854;51.466;7.260;2023-02-28T16:30:25;6.82;;;3.10;;
76892;SDS011;65854;51.466;7.260;2023-02-28T16:32:54;5.95;;;2.75;;
76892;SDS011;65854;51.466;7.260;2023-02-28T16:35:21;7.38;;;2.92;;
76892;SDS011;65854;51.466;7.260;2023-02-28T16:37:47;6.32;;;2.95;;
76892;SDS011;65854;51.466;7.260;2023-02-28T16:40:14;7.22;;;2.97;;
76892;SDS011;65854;51.466;7.260;2023-02-28T16:42:41;7.30;;;2.70;;
76892;SDS011;65854;51.466;7.260;2023-02-28T16:45:14;7.75;;;2.78;;
76892;SDS011;65854;51.466;7.260;2023-02-28T16:47:43;8.23;;;2.63;;
76892;SDS011;65854;51.466;7.260;2023-02-28T16:50:21;6.82;;;2.78;;
76892;SDS011;65854;51.466;7.260;2023-02-28T16:52:47;6.80;;;2.60;;
76892;SDS011;65854;51.466;7.260;2023-02-28T16:55:14;6.95;;;2.60;;
76892;SDS011;65854;51.466;7.260;2023-02-28T16:57:40;6.10;;;2.57;;
76892;SDS011;65854;51.466;7.260;2023-02-28T17:00:07;6.90;;;2.50;;
76892;SDS011;65854;51.466;7.260;2023-02-28T17:02:35;6.85;;;2.60;;
76892;SDS011;65854;51.466;7.260;2023-02-28T17:05:01;7.67;;;2.50;;
76892;SDS011;65854;51.466;7.260;2023-02-28T17:07:27;7.32;;;2.70;;
76892;SDS011;65854;51.466;7.260;2023-02-28T17:09:53;6.38;;;2.47;;
76892;SDS011;65854;51.466;7.260;2023-02-28T17:12:18;7.07;;;2.55;;
76892;SDS011;65854;51.466;7.260;2023-02-28T17:14:44;7.43;;;2.57;;
76892;SDS011;65854;51.466;7.260;2023-02-28T17:17:14;7.60;;;2.83;;
76892;SDS011;65854;51.466;7.260;2023-02-28T17:19:43;8.10;;;2.80;;
76892;SDS011;65854;51.466;7.260;2023-02-28T17:22:09;6.65;;;2.83;;
76892;SDS011;65854;51.466;7.260;2023-02-28T17:24:36;7.00;;;2.50;;
76892;SDS011;65854;51.466;7.260;2023-02-28T17:27:05;8.07;;;2.90;;
76892;SDS011;65854;51.466;7.260;2023-02-28T17:29:33;6.70;;;2.63;;
76892;SDS011;65854;51.466;7.260;2023-02-28T17:31:58;7.40;;;2.83;;
76892;SDS011;65854;51.466;7.260;2023-02-28T17:34:24;7.07;;;2.80;;
76892;SDS011;65854;51.466;7.260;2023-02-28T17:36:50;6.15;;;2.85;;
76892;SDS011;65854;51.466;7.260;2023-02-28T17:39:17;9.33;;;2.70;;
76892;SDS011;65854;51.466;7.260;2023-02-28T17:41:49;7.75;;;2.97;;
76892;SDS011;65854;51.466;7.260;2023-02-28T17:44:18;9.60;;;3.42;;
76892;SDS011;65854;51.466;7.260;2023-02-28T17:46:45;7.82;;;3.10;;
76892;SDS011;65854;51.466;7.260;2023-02-28T17:49:11;7.20;;;2.90;;
76892;SDS011;65854;51.466;7.260;2023-02-28T17:51:37;8.80;;;3.10;;
76892;SDS011;65854;51.466;7.260;2023-02-28T17:54:04;7.35;;;3.08;;
76892;SDS011;65854;51.466;7.260;2023-02-28T17:56:31;6.30;;;2.72;;